CSA weather

Campo Sonora Airstrip
Hermosillo, Sonora, Mexico

Public forecast

Using degrees Celsius for public forecast. Weather courtesy of forecast.io.

Closest aviation weather report (METAR) to Campo Sonora Airstrip

Report is more than 6 hours old.

Closest report is General José María Yáñez International Airport, 21.9 nm (40.6 km) WSW. Retrieved 2020/07/08 01:40 UTC (6 hours ago):

MMGM 080140Z 20010KT 10SM SKC 33/27 A2972

Closest aviation forecast (TAF) to Campo Sonora Airstrip

Closest forecast is General José María Yáñez International Airport, 21.9 nm (40.6 km) WSW. Retrieved 2020/07/08 06:15 UTC (1 hour ago):

TAF MMGM 080507Z 0806/0906 20005KT P6SM BKN250 FM081700 20010KT P6SM SCT250 FM090300 23005KT P6SM VC TS SCT020 BKN250